Terminal Aerodrome Forecast
Issued by NWS Blacksburg, VA

Current Version | Previous Version | Graphics & Text | Print | Product List | Glossary On
Versions: 1 2 3 4 5 6 7 8 9 10 11 12 13 14 15 16 17 18 19
000
FTUS41 KRNK 010124 AAA
TAFBLF
TAF AMD
KBLF 010124Z 0101/0124 23010G20KT P6SM BKN025 OVC035
     FM010200 28011G21KT P6SM OVC028
      TEMPO 0102/0104 5SM -SHRA OVC018
     FM011200 27013G24KT P6SM OVC035
     FM011800 27011G20KT P6SM SCT040=

USA.gov is the U.S. government's official web portal to all federal, state and local government web resources and services.